Main page
METAR-TAF:

METAR-TAF

Airports :

Whitegrass Airport

Tanna, Vanuatu

latitude: 19-27-18S, longitude: 169-13-26E, elevation: 6 m

Current weather observation

The report was made 1 hour and 17 minutes ago, at 20:00 UTC
Calm wind
Temperature 23°C
Humidity 89%
Pressure 1016 hPa
Visibility 10 km or more
Scattered clouds at a height of 2500 ft

METAR: NVVW 022000Z 00000KT 9999 SCT025 23/21 Q1016

Time: 08:17 (21:17 UTC)

Forecast

The report was made 5 hours and 17 minutes ago, at 16:00 UTC
Forecast valid from 02 at 18 UTC to 03 at 18 UTC
Wind 2 kt from variable directions
Visibility 10 km or more
Scattered clouds at a height of 2000 ft
Probability 40%
between IN and TE UTC
Visibility: 9000 m
Broken clouds at a height of 1800 ft
light rain showers

TAF: NVVW 021600Z 0218/0318 VRB02KT 9999 SCT020 PROB40 INTER 0218/0224 9000 -SHRA BKN018

Weather observations and forecasts of more than 4000 airports (METAR and TAF reports).

The available stations are represented by yellow and red dots on the map.

Hover mouse over dot to see the name of the station.

Then click to see weather observations and forecasts.

To change the map : click on the green buttons with a black cross to zoom in, on the green button with a dash to zoom out, or on the green arrows for adjacent maps.


METAR-TAF: